sensor_id;sensor_type;location;lat;lon;timestamp;pressure;altitude;pressure_sealevel;temperature;humidity
59055;BME280;44845;51.444;7.460;2024-01-15T00:00:16;98346.66;;;2.31;85.12
59055;BME280;44845;51.444;7.460;2024-01-15T00:02:41;98352.72;;;2.35;84.89
59055;BME280;44845;51.444;7.460;2024-01-15T00:05:07;98353.63;;;2.48;85.02
59055;BME280;44845;51.444;7.460;2024-01-15T00:07:32;98342.41;;;2.60;84.21
59055;BME280;44845;51.444;7.460;2024-01-15T00:09:58;98338.94;;;2.55;84.35
59055;BME280;44845;51.444;7.460;2024-01-15T00:12:23;98333.75;;;2.52;84.42
59055;BME280;44845;51.444;7.460;2024-01-15T00:14:48;98338.97;;;2.58;84.01
59055;BME280;44845;51.444;7.460;2024-01-15T00:17:14;98330.31;;;2.61;84.09
59055;BME280;44845;51.444;7.460;2024-01-15T00:19:39;98328.59;;;2.64;84.12
59055;BME280;44845;51.444;7.460;2024-01-15T00:22:04;98326.00;;;2.50;84.15
59055;BME280;44845;51.444;7.460;2024-01-15T00:24:30;98324.28;;;2.57;84.28
59055;BME280;44845;51.444;7.460;2024-01-15T00:26:55;98315.63;;;2.56;84.45
59055;BME280;44845;51.444;7.460;2024-01-15T00:29:21;98315.66;;;2.47;84.49
59055;BME280;44845;51.444;7.460;2024-01-15T00:31:47;98313.91;;;2.49;84.62
59055;BME280;44845;51.444;7.460;2024-01-15T00:34:12;98313.94;;;2.52;84.52
59055;BME280;44845;51.444;7.460;2024-01-15T00:36:37;98311.34;;;2.57;84.83
59055;BME280;44845;51.444;7.460;2024-01-15T00:39:03;98303.56;;;2.52;84.63
59055;BME280;44845;51.444;7.460;2024-01-15T00:41:30;98307.00;;;2.51;84.80
59055;BME280;44845;51.444;7.460;2024-01-15T00:43:55;98307.88;;;2.56;84.56
59055;BME280;44845;51.444;7.460;2024-01-15T00:46:21;98307.88;;;2.47;84.46
59055;BME280;44845;51.444;7.460;2024-01-15T00:48:46;98296.69;;;2.43;84.61
59055;BME280;44845;51.444;7.460;2024-01-15T00:51:12;98302.72;;;2.59;84.64
59055;BME280;44845;51.444;7.460;2024-01-15T00:53:37;98302.72;;;2.59;84.66
59055;BME280;44845;51.444;7.460;2024-01-15T00:56:03;98300.13;;;2.59;84.31
59055;BME280;44845;51.444;7.460;2024-01-15T00:58:28;98298.38;;;2.62;84.34
59055;BME280;44845;51.444;7.460;2024-01-15T01:00:54;98297.53;;;2.67;84.31
59055;BME280;44845;51.444;7.460;2024-01-15T01:03:19;98301.81;;;2.68;84.06
59055;BME280;44845;51.444;7.460;2024-01-15T01:05:44;98300.09;;;2.61;83.98
59055;BME280;44845;51.444;7.460;2024-01-15T01:08:10;98303.56;;;2.62;84.03
59055;BME280;44845;51.444;7.460;2024-01-15T01:10:35;98294.06;;;2.64;83.89
59055;BME280;44845;51.444;7.460;2024-01-15T01:13:00;98294.94;;;2.66;83.90
59055;BME280;44845;51.444;7.460;2024-01-15T01:15:26;98288.03;;;2.62;84.07
59055;BME280;44845;51.444;7.460;2024-01-15T01:17:52;98295.81;;;2.62;84.27
59055;BME280;44845;51.444;7.460;2024-01-15T01:20:17;98294.94;;;2.66;84.14
59055;BME280;44845;51.444;7.460;2024-01-15T01:22:43;98289.75;;;2.69;83.80
59055;BME280;44845;51.444;7.460;2024-01-15T01:25:08;98291.47;;;2.61;84.05
59055;BME280;44845;51.444;7.460;2024-01-15T01:27:35;98294.06;;;2.73;83.68
59055;BME280;44845;51.444;7.460;2024-01-15T01:30:00;98289.78;;;2.63;84.49
59055;BME280;44845;51.444;7.460;2024-01-15T01:32:26;98291.50;;;2.67;84.19
59055;BME280;44845;51.444;7.460;2024-01-15T01:34:51;98300.13;;;2.50;84.24
59055;BME280;44845;51.444;7.460;2024-01-15T01:37:16;98295.81;;;2.49;84.67
59055;BME280;44845;51.444;7.460;2024-01-15T01:39:43;98293.22;;;2.62;84.40
59055;BME280;44845;51.444;7.460;2024-01-15T01:42:08;98295.81;;;2.49;84.89
59055;BME280;44845;51.444;7.460;2024-01-15T01:44:34;98293.22;;;2.68;84.45
59055;BME280;44845;51.444;7.460;2024-01-15T01:47:00;98302.69;;;2.66;84.20
59055;BME280;44845;51.444;7.460;2024-01-15T01:49:26;98303.56;;;2.65;84.43
59055;BME280;44845;51.444;7.460;2024-01-15T01:51:52;98308.75;;;2.65;84.04
59055;BME280;44845;51.444;7.460;2024-01-15T01:54:19;98303.56;;;2.68;84.00
59055;BME280;44845;51.444;7.460;2024-01-15T01:56:47;98294.94;;;2.74;83.63
59055;BME280;44845;51.444;7.460;2024-01-15T01:59:16;98293.22;;;2.65;84.07
59055;BME280;44845;51.444;7.460;2024-01-15T02:01:41;98276.81;;;2.80;83.60
59055;BME280;44845;51.444;7.460;2024-01-15T02:04:07;98285.44;;;2.76;83.78
59055;BME280;44845;51.444;7.460;2024-01-15T02:06:33;98286.31;;;2.70;83.50
59055;BME280;44845;51.444;7.460;2024-01-15T02:08:59;98289.75;;;2.66;83.63
59055;BME280;44845;51.444;7.460;2024-01-15T02:11:24;98290.59;;;2.71;83.66
59055;BME280;44845;51.444;7.460;2024-01-15T02:13:49;98284.59;;;2.72;83.68
59055;BME280;44845;51.444;7.460;2024-01-15T02:16:15;98294.06;;;2.76;83.39
59055;BME280;44845;51.444;7.460;2024-01-15T02:18:44;98289.75;;;2.72;83.48
59055;BME280;44845;51.444;7.460;2024-01-15T02:21:12;98293.19;;;2.71;83.19
59055;BME280;44845;51.444;7.460;2024-01-15T02:23:38;98290.63;;;2.66;83.62
59055;BME280;44845;51.444;7.460;2024-01-15T02:26:04;98291.47;;;2.64;84.10
59055;BME280;44845;51.444;7.460;2024-01-15T02:28:30;98297.53;;;2.72;83.70
59055;BME280;44845;51.444;7.460;2024-01-15T02:30:55;98298.38;;;2.62;84.28
59055;BME280;44845;51.444;7.460;2024-01-15T02:33:21;98300.09;;;2.74;83.31
59055;BME280;44845;51.444;7.460;2024-01-15T02:35:46;98294.94;;;2.69;83.78
59055;BME280;44845;51.444;7.460;2024-01-15T02:38:12;98299.25;;;2.70;83.57
59055;BME280;44845;51.444;7.460;2024-01-15T02:40:38;98296.66;;;2.64;83.55
59055;BME280;44845;51.444;7.460;2024-01-15T02:43:03;98301.84;;;2.67;83.79
59055;BME280;44845;51.444;7.460;2024-01-15T02:45:29;98307.88;;;2.59;83.60
59055;BME280;44845;51.444;7.460;2024-01-15T02:47:54;98305.28;;;2.59;83.63
59055;BME280;44845;51.444;7.460;2024-01-15T02:50:19;98296.66;;;2.64;83.75
59055;BME280;44845;51.444;7.460;2024-01-15T02:52:45;98293.22;;;2.62;84.20
59055;BME280;44845;51.444;7.460;2024-01-15T02:55:10;98294.09;;;2.65;83.82
59055;BME280;44845;51.444;7.460;2024-01-15T02:57:35;98292.34;;;2.59;83.89
59055;BME280;44845;51.444;7.460;2024-01-15T03:00:04;98281.97;;;2.53;84.13
59055;BME280;44845;51.444;7.460;2024-01-15T03:02:29;98282.84;;;2.58;83.73
59055;BME280;44845;51.444;7.460;2024-01-15T03:04:57;98290.63;;;2.44;83.78
59055;BME280;44845;51.444;7.460;2024-01-15T03:07:22;98285.44;;;2.54;83.99
59055;BME280;44845;51.444;7.460;2024-01-15T03:09:47;98282.84;;;2.58;84.05
59055;BME280;44845;51.444;7.460;2024-01-15T03:12:13;98288.88;;;2.64;83.40
59055;BME280;44845;51.444;7.460;2024-01-15T03:14:38;98282.88;;;2.65;83.33
59055;BME280;44845;51.444;7.460;2024-01-15T03:17:03;98295.81;;;2.77;83.04
59055;BME280;44845;51.444;7.460;2024-01-15T03:19:29;98292.34;;;2.67;83.35
59055;BME280;44845;51.444;7.460;2024-01-15T03:21:56;98293.22;;;2.62;82.96
59055;BME280;44845;51.444;7.460;2024-01-15T03:24:21;98301.84;;;2.67;83.32
59055;BME280;44845;51.444;7.460;2024-01-15T03:26:46;98295.81;;;2.69;83.12
59055;BME280;44845;51.444;7.460;2024-01-15T03:29:12;98295.78;;;2.46;83.36
59055;BME280;44845;51.444;7.460;2024-01-15T03:31:37;98298.41;;;2.55;83.93
59055;BME280;44845;51.444;7.460;2024-01-15T03:34:02;98295.81;;;2.60;83.23
59055;BME280;44845;51.444;7.460;2024-01-15T03:36:28;98308.75;;;2.62;83.51
59055;BME280;44845;51.444;7.460;2024-01-15T03:38:53;98295.78;;;2.71;83.19
59055;BME280;44845;51.444;7.460;2024-01-15T03:41:19;98295.81;;;2.68;83.05
59055;BME280;44845;51.444;7.460;2024-01-15T03:43:44;98298.38;;;2.58;83.73
59055;BME280;44845;51.444;7.460;2024-01-15T03:46:09;98296.63;;;2.78;83.24
59055;BME280;44845;51.444;7.460;2024-01-15T03:48:35;98297.53;;;2.72;83.25
59055;BME280;44845;51.444;7.460;2024-01-15T03:51:00;98294.06;;;2.75;82.77
59055;BME280;44845;51.444;7.460;2024-01-15T03:53:26;98288.03;;;2.77;82.63
59055;BME280;44845;51.444;7.460;2024-01-15T03:55:52;98296.66;;;2.61;83.36
59055;BME280;44845;51.444;7.460;2024-01-15T03:58:17;98289.75;;;2.66;83.21
59055;BME280;44845;51.444;7.460;2024-01-15T04:00:43;98282.84;;;2.73;82.73
59055;BME280;44845;51.444;7.460;2024-01-15T04:03:08;98288.03;;;2.77;82.94
59055;BME280;44845;51.444;7.460;2024-01-15T04:05:34;98296.66;;;2.79;82.64
59055;BME280;44845;51.444;7.460;2024-01-15T04:07:59;98287.16;;;2.81;82.86
59055;BME280;44845;51.444;7.460;2024-01-15T04:10:25;98290.59;;;2.85;82.65
59055;BME280;44845;51.444;7.460;2024-01-15T04:12:50;98281.97;;;2.86;82.38
59055;BME280;44845;51.444;7.460;2024-01-15T04:15:15;98284.59;;;2.72;82.90
59055;BME280;44845;51.444;7.460;2024-01-15T04:17:41;98282.88;;;2.68;83.01
59055;BME280;44845;51.444;7.460;2024-01-15T04:20:07;98263.00;;;2.73;83.17
59055;BME280;44845;51.444;7.460;2024-01-15T04:22:33;98254.34;;;2.76;82.76
59055;BME280;44845;51.444;7.460;2024-01-15T04:24:59;98265.59;;;2.76;82.72
59055;BME280;44845;51.444;7.460;2024-01-15T04:27:24;98262.13;;;2.74;83.04
59055;BME280;44845;51.444;7.460;2024-01-15T04:29:49;98258.66;;;2.78;82.55
59055;BME280;44845;51.444;7.460;2024-01-15T04:32:15;98244.00;;;2.82;82.81
59055;BME280;44845;51.444;7.460;2024-01-15T04:34:40;98249.19;;;2.77;82.87
59055;BME280;44845;51.444;7.460;2024-01-15T04:37:06;98241.44;;;2.77;82.49
59055;BME280;44845;51.444;7.460;2024-01-15T04:39:31;98249.19;;;2.82;82.53
59055;BME280;44845;51.444;7.460;2024-01-15T04:41:57;98237.97;;;2.69;83.12
59055;BME280;44845;51.444;7.460;2024-01-15T04:44:22;98251.75;;;2.84;82.82
59055;BME280;44845;51.444;7.460;2024-01-15T04:46:47;98239.69;;;2.73;82.63
59055;BME280;44845;51.444;7.460;2024-01-15T04:49:13;98220.72;;;2.71;82.98
59055;BME280;44845;51.444;7.460;2024-01-15T04:51:38;98228.47;;;2.76;82.57
59055;BME280;44845;51.444;7.460;2024-01-15T04:54:04;98223.28;;;2.76;82.56
59055;BME280;44845;51.444;7.460;2024-01-15T04:56:29;98221.56;;;2.76;82.27
59055;BME280;44845;51.444;7.460;2024-01-15T04:58:54;98219.84;;;2.77;82.67
59055;BME280;44845;51.444;7.460;2024-01-15T05:01:20;98217.28;;;2.75;82.43
59055;BME280;44845;51.444;7.460;2024-01-15T05:03:45;98220.72;;;2.73;82.73
59055;BME280;44845;51.444;7.460;2024-01-15T05:06:10;98213.78;;;2.73;82.74
59055;BME280;44845;51.444;7.460;2024-01-15T05:08:36;98212.94;;;2.79;82.54
59055;BME280;44845;51.444;7.460;2024-01-15T05:11:01;98208.63;;;2.83;82.45
59055;BME280;44845;51.444;7.460;2024-01-15T05:13:27;98216.38;;;2.79;82.20
59055;BME280;44845;51.444;7.460;2024-01-15T05:15:53;98211.25;;;2.62;82.73
59055;BME280;44845;51.444;7.460;2024-01-15T05:18:18;98215.50;;;2.80;82.69
59055;BME280;44845;51.444;7.460;2024-01-15T05:20:43;98212.94;;;2.77;82.84
59055;BME280;44845;51.444;7.460;2024-01-15T05:23:11;98208.66;;;2.70;83.11
59055;BME280;44845;51.444;7.460;2024-01-15T05:25:37;98196.53;;;2.81;82.86
59055;BME280;44845;51.444;7.460;2024-01-15T05:28:02;98208.66;;;2.70;82.78
59055;BME280;44845;51.444;7.460;2024-01-15T05:30:27;98200.81;;;2.86;82.69
59055;BME280;44845;51.444;7.460;2024-01-15T05:32:53;98200.91;;;2.62;82.99
59055;BME280;44845;51.444;7.460;2024-01-15T05:35:18;98206.00;;;2.78;82.73
59055;BME280;44845;51.444;7.460;2024-01-15T05:37:45;98208.63;;;2.83;82.64
59055;BME280;44845;51.444;7.460;2024-01-15T05:40:11;98205.19;;;2.62;83.11
59055;BME280;44845;51.444;7.460;2024-01-15T05:42:37;98212.09;;;2.75;83.20
59055;BME280;44845;51.444;7.460;2024-01-15T05:45:03;98199.13;;;2.85;82.61
59055;BME280;44845;51.444;7.460;2024-01-15T05:47:30;98198.25;;;2.83;82.64
59055;BME280;44845;51.444;7.460;2024-01-15T05:49:56;98199.97;;;2.84;82.85
59055;BME280;44845;51.444;7.460;2024-01-15T05:52:22;98204.28;;;2.85;82.83
59055;BME280;44845;51.444;7.460;2024-01-15T05:54:47;98198.25;;;2.83;82.64
59055;BME280;44845;51.444;7.460;2024-01-15T05:57:13;98199.97;;;2.84;82.85
59055;BME280;44845;51.444;7.460;2024-01-15T05:59:38;98200.84;;;2.79;82.95
59055;BME280;44845;51.444;7.460;2024-01-15T06:02:03;98199.97;;;2.80;82.84
59055;BME280;44845;51.444;7.460;2024-01-15T06:04:29;98202.56;;;2.82;82.92
59055;BME280;44845;51.444;7.460;2024-01-15T06:06:54;98200.00;;;2.77;82.98
59055;BME280;44845;51.444;7.460;2024-01-15T06:09:19;98206.00;;;2.87;82.38
59055;BME280;44845;51.444;7.460;2024-01-15T06:11:45;98199.97;;;2.84;82.80
59055;BME280;44845;51.444;7.460;2024-01-15T06:14:10;98193.97;;;2.72;82.94
59055;BME280;44845;51.444;7.460;2024-01-15T06:16:35;98184.47;;;2.74;82.83
59055;BME280;44845;51.444;7.460;2024-01-15T06:19:01;98187.91;;;2.79;82.82
59055;BME280;44845;51.444;7.460;2024-01-15T06:21:26;98186.13;;;2.88;82.56
59055;BME280;44845;51.444;7.460;2024-01-15T06:23:51;98190.50;;;2.76;82.92
59055;BME280;44845;51.444;7.460;2024-01-15T06:26:17;98180.13;;;2.78;82.76
59055;BME280;44845;51.444;7.460;2024-01-15T06:28:42;98186.16;;;2.85;82.42
59055;BME280;44845;51.444;7.460;2024-01-15T06:31:08;98179.22;;;2.85;82.59
59055;BME280;44845;51.444;7.460;2024-01-15T06:33:33;98181.00;;;2.78;82.88
59055;BME280;44845;51.444;7.460;2024-01-15T06:35:58;98183.59;;;2.74;82.92
59055;BME280;44845;51.444;7.460;2024-01-15T06:38:24;98177.53;;;2.83;82.17
59055;BME280;44845;51.444;7.460;2024-01-15T06:40:50;98189.63;;;2.77;82.48
59055;BME280;44845;51.444;7.460;2024-01-15T06:43:16;98181.00;;;2.80;82.89
59055;BME280;44845;51.444;7.460;2024-01-15T06:45:42;98178.44;;;2.67;83.30
59055;BME280;44845;51.444;7.460;2024-01-15T06:48:08;98184.44;;;2.87;82.41
59055;BME280;44845;51.444;7.460;2024-01-15T06:50:33;98171.56;;;2.68;82.73
59055;BME280;44845;51.444;7.460;2024-01-15T06:52:59;98174.94;;;2.84;82.84
59055;BME280;44845;51.444;7.460;2024-01-15T06:55:24;98181.84;;;2.79;83.01
59055;BME280;44845;51.444;7.460;2024-01-15T06:57:50;98180.13;;;2.81;82.80
59055;BME280;44845;51.444;7.460;2024-01-15T07:00:16;98172.34;;;2.87;82.51
59055;BME280;44845;51.444;7.460;2024-01-15T07:02:41;98176.66;;;2.91;82.30
59055;BME280;44845;51.444;7.460;2024-01-15T07:05:07;98186.13;;;2.88;82.66
59055;BME280;44845;51.444;7.460;2024-01-15T07:07:32;98185.25;;;2.90;82.95
59055;BME280;44845;51.444;7.460;2024-01-15T07:09:57;98197.41;;;2.77;82.75
59055;BME280;44845;51.444;7.460;2024-01-15T07:12:23;98191.31;;;2.91;82.51
59055;BME280;44845;51.444;7.460;2024-01-15T07:14:48;98195.63;;;2.89;82.72
59055;BME280;44845;51.444;7.460;2024-01-15T07:17:15;98184.44;;;2.84;82.98
59055;BME280;44845;51.444;7.460;2024-01-15T07:19:40;98187.06;;;2.77;83.28
59055;BME280;44845;51.444;7.460;2024-01-15T07:22:08;98186.19;;;2.72;83.43
59055;BME280;44845;51.444;7.460;2024-01-15T07:24:33;98186.16;;;2.85;82.90
59055;BME280;44845;51.444;7.460;2024-01-15T07:27:00;98187.03;;;2.82;83.17
59055;BME280;44845;51.444;7.460;2024-01-15T07:29:25;98189.59;;;2.87;83.05
59055;BME280;44845;51.444;7.460;2024-01-15T07:31:51;98190.47;;;2.89;83.07
59055;BME280;44845;51.444;7.460;2024-01-15T07:34:17;98194.78;;;2.84;83.00
59055;BME280;44845;51.444;7.460;2024-01-15T07:36:44;98194.81;;;2.76;83.27
59055;BME280;44845;51.444;7.460;2024-01-15T07:39:09;98195.47;;;3.30;92.92
59055;BME280;44845;51.444;7.460;2024-01-15T07:41:35;98184.00;;;4.72;100.00
59055;BME280;44845;51.444;7.460;2024-01-15T07:44:00;98184.97;;;5.38;83.01
59055;BME280;44845;51.444;7.460;2024-01-15T07:46:25;98182.28;;;5.43;75.79
59055;BME280;44845;51.444;7.460;2024-01-15T07:48:51;98178.91;;;5.96;72.60
59055;BME280;44845;51.444;7.460;2024-01-15T07:51:24;98178.22;;;5.23;72.91
59055;BME280;44845;51.444;7.460;2024-01-15T07:53:49;98183.28;;;4.59;75.33
59055;BME280;44845;51.444;7.460;2024-01-15T07:56:15;98184.59;;;4.07;77.52
59055;BME280;44845;51.444;7.460;2024-01-15T07:58:46;98180.41;;;3.91;78.06
59055;BME280;44845;51.444;7.460;2024-01-15T08:01:11;98175.41;;;3.63;79.52
59055;BME280;44845;51.444;7.460;2024-01-15T08:03:40;98191.94;;;3.45;80.16
59055;BME280;44845;51.444;7.460;2024-01-15T08:06:05;98185.88;;;3.44;81.01
59055;BME280;44845;51.444;7.460;2024-01-15T08:08:31;98175.66;;;3.24;81.68
59055;BME280;44845;51.444;7.460;2024-01-15T08:10:56;98179.13;;;3.15;82.12
59055;BME280;44845;51.444;7.460;2024-01-15T08:13:22;98182.63;;;3.09;82.36
59055;BME280;44845;51.444;7.460;2024-01-15T08:15:47;98183.47;;;3.10;82.65
59055;BME280;44845;51.444;7.460;2024-01-15T08:18:12;98174.78;;;3.17;82.66
59055;BME280;44845;51.444;7.460;2024-01-15T08:20:38;98175.78;;;2.94;83.04
59055;BME280;44845;51.444;7.460;2024-01-15T08:23:04;98162.78;;;3.00;83.12
59055;BME280;44845;51.444;7.460;2024-01-15T08:25:29;98168.81;;;3.04;83.16
59055;BME280;44845;51.444;7.460;2024-01-15T08:27:56;98163.75;;;2.77;83.92
59055;BME280;44845;51.444;7.460;2024-01-15T08:30:21;98166.25;;;2.93;83.83
59055;BME280;44845;51.444;7.460;2024-01-15T08:32:50;98167.16;;;2.89;84.01
59055;BME280;44845;51.444;7.460;2024-01-15T08:35:15;98164.56;;;2.89;83.90
59055;BME280;44845;51.444;7.460;2024-01-15T08:37:40;98167.16;;;2.86;84.04
59055;BME280;44845;51.444;7.460;2024-01-15T08:40:06;98166.31;;;2.90;84.50
59055;BME280;44845;51.444;7.460;2024-01-15T08:42:31;98162.88;;;2.85;84.13
59055;BME280;44845;51.444;7.460;2024-01-15T08:44:57;98163.72;;;2.90;84.09
59055;BME280;44845;51.444;7.460;2024-01-15T08:47:22;98170.63;;;2.81;84.92
59055;BME280;44845;51.444;7.460;2024-01-15T08:49:47;98162.06;;;2.70;85.13
59055;BME280;44845;51.444;7.460;2024-01-15T08:52:13;98168.91;;;2.80;85.08
59055;BME280;44845;51.444;7.460;2024-01-15T08:54:39;98167.16;;;2.86;84.85
59055;BME280;44845;51.444;7.460;2024-01-15T08:57:04;98170.63;;;2.89;84.40
59055;BME280;44845;51.444;7.460;2024-01-15T08:59:29;98170.66;;;2.66;85.03
59055;BME280;44845;51.444;7.460;2024-01-15T09:01:55;98170.63;;;2.78;84.95
59055;BME280;44845;51.444;7.460;2024-01-15T09:04:23;98181.00;;;2.78;85.06
59055;BME280;44845;51.444;7.460;2024-01-15T09:06:48;98187.88;;;2.78;85.40
59055;BME280;44845;51.444;7.460;2024-01-15T09:09:14;98180.16;;;2.68;85.39
59055;BME280;44845;51.444;7.460;2024-01-15T09:11:40;98186.16;;;2.78;85.12
59055;BME280;44845;51.444;7.460;2024-01-15T09:14:05;98182.69;;;2.86;84.96
59055;BME280;44845;51.444;7.460;2024-01-15T09:16:33;98187.88;;;2.86;84.99
59055;BME280;44845;51.444;7.460;2024-01-15T09:18:58;98187.91;;;2.79;84.66
59055;BME280;44845;51.444;7.460;2024-01-15T09:21:23;98185.31;;;2.87;84.43
59055;BME280;44845;51.444;7.460;2024-01-15T09:23:50;98184.44;;;2.90;84.34
59055;BME280;44845;51.444;7.460;2024-01-15T09:26:15;98188.75;;;2.85;84.69
59055;BME280;44845;51.444;7.460;2024-01-15T09:28:41;98189.63;;;2.79;84.43
59055;BME280;44845;51.444;7.460;2024-01-15T09:31:07;98194.78;;;2.85;84.48
59055;BME280;44845;51.444;7.460;2024-01-15T09:33:32;98191.31;;;2.91;84.22
59055;BME280;44845;51.444;7.460;2024-01-15T09:36:00;98198.28;;;2.75;85.25
59055;BME280;44845;51.444;7.460;2024-01-15T09:38:25;98190.50;;;2.79;85.13
59055;BME280;44845;51.444;7.460;2024-01-15T09:40:51;98192.19;;;2.85;85.04
59055;BME280;44845;51.444;7.460;2024-01-15T09:43:18;98189.59;;;2.90;84.69
59055;BME280;44845;51.444;7.460;2024-01-15T09:45:44;98189.59;;;2.84;84.96
59055;BME280;44845;51.444;7.460;2024-01-15T09:48:09;98196.53;;;2.85;84.88
59055;BME280;44845;51.444;7.460;2024-01-15T09:50:34;98201.75;;;2.75;84.76
59055;BME280;44845;51.444;7.460;2024-01-15T09:53:01;98197.41;;;2.77;84.68
59055;BME280;44845;51.444;7.460;2024-01-15T09:55:26;98197.41;;;2.76;85.11
59055;BME280;44845;51.444;7.460;2024-01-15T09:57:52;98195.66;;;2.83;84.47
59055;BME280;44845;51.444;7.460;2024-01-15T10:00:19;98200.00;;;2.74;84.89
59055;BME280;44845;51.444;7.460;2024-01-15T10:02:45;98214.66;;;2.85;84.68
59055;BME280;44845;51.444;7.460;2024-01-15T10:05:11;98210.31;;;2.84;84.54
59055;BME280;44845;51.444;7.460;2024-01-15T10:07:37;98207.72;;;2.87;84.29
59055;BME280;44845;51.444;7.460;2024-01-15T10:10:03;98207.75;;;2.82;84.71
59055;BME280;44845;51.444;7.460;2024-01-15T10:12:29;98202.59;;;2.69;84.60
59055;BME280;44845;51.444;7.460;2024-01-15T10:14:55;98203.44;;;2.76;84.53
59055;BME280;44845;51.444;7.460;2024-01-15T10:17:21;98203.41;;;2.86;84.27
59055;BME280;44845;51.444;7.460;2024-01-15T10:19:46;98195.66;;;2.81;83.99
59055;BME280;44845;51.444;7.460;2024-01-15T10:22:13;98192.22;;;2.79;84.61
59055;BME280;44845;51.444;7.460;2024-01-15T10:24:40;98194.81;;;2.71;84.88
59055;BME280;44845;51.444;7.460;2024-01-15T10:27:09;98197.41;;;2.82;84.70
59055;BME280;44845;51.444;7.460;2024-01-15T10:29:35;98187.03;;;2.82;84.36
59055;BME280;44845;51.444;7.460;2024-01-15T10:32:00;98187.00;;;2.90;84.00
59055;BME280;44845;51.444;7.460;2024-01-15T10:34:26;98184.41;;;2.85;83.76
59055;BME280;44845;51.444;7.460;2024-01-15T10:36:52;98193.06;;;2.89;84.20
59055;BME280;44845;51.444;7.460;2024-01-15T10:39:21;98192.19;;;2.91;84.30
59055;BME280;44845;51.444;7.460;2024-01-15T10:41:47;98189.56;;;2.99;84.13
59055;BME280;44845;51.444;7.460;2024-01-15T10:44:12;98180.09;;;2.93;83.76
59055;BME280;44845;51.444;7.460;2024-01-15T10:46:38;98187.88;;;2.92;83.51
59055;BME280;44845;51.444;7.460;2024-01-15T10:49:04;98188.75;;;2.78;83.59
59055;BME280;44845;51.444;7.460;2024-01-15T10:51:30;98194.81;;;2.77;83.66
59055;BME280;44845;51.444;7.460;2024-01-15T10:53:56;98188.75;;;2.85;84.14
59055;BME280;44845;51.444;7.460;2024-01-15T10:56:22;98194.78;;;2.84;84.09
59055;BME280;44845;51.444;7.460;2024-01-15T10:58:49;98198.25;;;2.73;84.84
59055;BME280;44845;51.444;7.460;2024-01-15T11:01:16;98195.66;;;2.78;84.26
59055;BME280;44845;51.444;7.460;2024-01-15T11:03:43;98196.53;;;2.85;84.72
59055;BME280;44845;51.444;7.460;2024-01-15T11:06:19;98206.88;;;2.83;84.66
59055;BME280;44845;51.444;7.460;2024-01-15T11:08:47;98203.41;;;2.92;83.89
59055;BME280;44845;51.444;7.460;2024-01-15T11:11:13;98193.09;;;2.83;83.79
59055;BME280;44845;51.444;7.460;2024-01-15T11:16:06;98193.88;;;2.99;83.68
59055;BME280;44845;51.444;7.460;2024-01-15T11:18:35;98180.94;;;2.97;83.97
59055;BME280;44845;51.444;7.460;2024-01-15T11:23:45;98188.75;;;2.85;84.19
59055;BME280;44845;51.444;7.460;2024-01-15T11:29:03;98199.09;;;2.89;84.23
59055;BME280;44845;51.444;7.460;2024-01-15T11:34:09;98204.25;;;2.96;84.59
59055;BME280;44845;51.444;7.460;2024-01-15T11:42:03;98192.19;;;2.87;84.58
59055;BME280;44845;51.444;7.460;2024-01-15T11:44:29;98200.75;;;3.03;83.81
59055;BME280;44845;51.444;7.460;2024-01-15T11:52:20;98183.53;;;3.02;83.47
59055;BME280;44845;51.444;7.460;2024-01-15T11:57:42;98192.16;;;2.96;84.07
59055;BME280;44845;51.444;7.460;2024-01-15T12:00:11;98185.25;;;3.00;84.47
59055;BME280;44845;51.444;7.460;2024-01-15T12:02:41;98179.16;;;3.09;83.54
59055;BME280;44845;51.444;7.460;2024-01-15T12:05:10;98171.38;;;3.13;83.55
59055;BME280;44845;51.444;7.460;2024-01-15T12:07:38;98180.00;;;3.11;84.15
59055;BME280;44845;51.444;7.460;2024-01-15T12:10:08;98179.16;;;3.02;83.95
59055;BME280;44845;51.444;7.460;2024-01-15T12:12:39;98178.34;;;2.96;84.85
59055;BME280;44845;51.444;7.460;2024-01-15T12:15:05;98176.63;;;2.93;83.73
59055;BME280;44845;51.444;7.460;2024-01-15T12:17:31;98187.81;;;3.01;84.02
59055;BME280;44845;51.444;7.460;2024-01-15T12:19:57;98194.72;;;3.09;83.90
59055;BME280;44845;51.444;7.460;2024-01-15T12:22:22;98182.56;;;3.20;84.18
59055;BME280;44845;51.444;7.460;2024-01-15T12:24:47;98183.44;;;3.19;83.57
59055;BME280;44845;51.444;7.460;2024-01-15T12:27:12;98186.06;;;3.10;83.43
59055;BME280;44845;51.444;7.460;2024-01-15T12:29:38;98184.31;;;3.15;83.33
59055;BME280;44845;51.444;7.460;2024-01-15T12:32:05;98196.44;;;3.07;83.93
59055;BME280;44845;51.444;7.460;2024-01-15T12:34:30;98189.53;;;3.12;83.87
59055;BME280;44845;51.444;7.460;2024-01-15T12:36:57;98189.47;;;3.18;83.66
59055;BME280;44845;51.444;7.460;2024-01-15T12:39:22;98189.56;;;2.99;83.82
59055;BME280;44845;51.444;7.460;2024-01-15T12:41:49;98190.38;;;3.11;83.78
59055;BME280;44845;51.444;7.460;2024-01-15T12:44:14;98192.13;;;3.07;84.34
59055;BME280;44845;51.444;7.460;2024-01-15T12:46:40;98193.00;;;3.04;84.27
59055;BME280;44845;51.444;7.460;2024-01-15T12:49:05;98186.03;;;3.16;84.32
59055;BME280;44845;51.444;7.460;2024-01-15T12:51:30;98188.66;;;3.05;84.33
59055;BME280;44845;51.444;7.460;2024-01-15T12:53:59;98193.06;;;2.89;84.50
59055;BME280;44845;51.444;7.460;2024-01-15T12:56:24;98186.13;;;2.97;84.54
59055;BME280;44845;51.444;7.460;2024-01-15T12:58:49;98198.16;;;3.14;83.90
59055;BME280;44845;51.444;7.460;2024-01-15T13:01:15;98199.94;;;2.96;84.06
59055;BME280;44845;51.444;7.460;2024-01-15T13:03:40;98202.50;;;3.01;83.56
59055;BME280;44845;51.444;7.460;2024-01-15T13:06:06;98207.72;;;2.90;84.21
59055;BME280;44845;51.444;7.460;2024-01-15T13:08:31;98210.31;;;2.87;83.73
59055;BME280;44845;51.444;7.460;2024-01-15T13:10:57;98218.03;;;3.02;84.14
59055;BME280;44845;51.444;7.460;2024-01-15T13:13:23;98214.59;;;3.03;83.75
59055;BME280;44845;51.444;7.460;2024-01-15T13:15:48;98219.75;;;3.00;84.47
59055;BME280;44845;51.444;7.460;2024-01-15T13:18:14;98222.34;;;3.00;84.04
59055;BME280;44845;51.444;7.460;2024-01-15T13:20:39;98219.78;;;2.97;84.82
59055;BME280;44845;51.444;7.460;2024-01-15T13:23:04;98212.00;;;3.03;84.30
59055;BME280;44845;51.444;7.460;2024-01-15T13:25:30;98222.38;;;2.88;84.98